ultins dâts rilevâts

timp cumò
cielo
temperadure
temperatura
precipitazion
pioggia
umiditât
umidita
aiar
vento
aiar medi
vento_medio
pression
pressione
tabele
situazion di cumò
stazionore
(CET)
covierture dal cîlprecip.
mm
temp.
°C
umiditât
%
aiar
km/h
aiar massim
km/h
pression
hPa
radiaz. globâl
KJ/m2
mâr
°C
nêf
cm
Pontebe03:00sereno0.0-6.71007NNE13-0--
Fusinis03:00n.d.--14.47801----
Ariis03:00sereno0.0-4.194------
Barcis03:00sereno0.0-6.3912WNW6-0--
Borg Grote Gigant03:00sereno0.0-4.9869E14986.741--
Bicinins03:00sereno0.0-3.6914NNE6----
Boa Paloma03:00sereno-4.962--1023.10--
Bordan03:00sereno0.0-1.9-------
Brugnere03:00n.d.0.0-3.2-5NNW71017.60--
Caprive03:00sereno0.0-3.2813NNE81009.60--
Rabli03:00sereno0.0-8.199--917.6---
Çarvignan03:00sereno0.0-3.7944NE101024.30--
Chievolis03:00n.d.0.0-3.9----0--
Cividât03:00sereno0.0-1.26720NE271004.80--
Cjamin di Codroip03:00sereno0.0-2.3100------
Codroip03:00sereno0.0-5.6956NE101017.80--
Denemonç03:00sereno0.0-5.7953W5969.20--
Faedis03:00n.d.0.0-1.4745NE81001.74--
Feagne03:00sereno0.0-2.58417N201005.40--
Fossalon03:00sereno0.0-3.4776NNE91021.30--
For disore03:00sereno0.0-6.4683SE8913.10--
Glemone del F.03:00sereno0.0-1.4679N18----
Gardiscje03:00n.d.0.0-3.7874ENE121020.46--
Grau03:00sereno0.00.57710NE15-0--
il Gorc03:00sereno0.0-2.8794NNE6----
Grau mâr03:00sereno0.01.37711NE151023.808.9-
Lauçac03:00sereno0.0-3.7917NE10----
Lignan S.03:00sereno0.02.08216NE211021.41--
La Mont Sante di Lussari03:00sereno0.0-8.3773SW5818.30--
Mont Mataiûr03:00n.d.--7.97814NW21832.50--
Mugle03:00sereno0.02.26213ESE211020.00--
Monfalcon03:00sereno0.00.56912NNE161018.00--
Musi03:00sereno0.0-5.3739N18-0--
Palaçûl03:00sereno0.0-4.3976NE121019.50--
Pale dal Tei03:00n.d.--6.167--844.80--
Plancjaval03:00sereno0.0-8.9862S8869.90--
Pordenon03:00sereno0.0-3.8744NNW9-0--
Pradaman03:00sereno0.0-6.11002N6----
Rivis03:00sereno0.0-4.095------
San Vît dal Tiliment03:00n.d.0.0-4.21008NNE121019.60--
Sappada (ARPAV)03:00n.d.0.0-11.179---0--
Sgonico03:00sereno0.0-4.0934E7989.10--
San Pieri dai Sclavons03:00sereno0.0-4.59016E211001.80--
Talmassons03:00n.d.0.0-3.3919ENE121016.10--
Tarvis03:00sereno0.0-9.79813922.70--
Tumieç03:00sereno0.0-4.5866W12-0--
Triest03:00sereno0.03.2586SE131020.8011.4-
Udin03:00sereno0.0-5.4824ENE71012.00--
Vivâr03:00sereno0.0-4.0897N111006.00--
M. Çoncolan03:00sereno0.0-7.5423W7821.70--

des 00 UTC ae ultime rilevazion

covierture dal cîl
cielo
temperadure minime
temperatura_min
temperadure massime
temperatura_max
precipitazion totâl
pioggia
umiditât medie
umidita
aiar massim
vento
tabele
riepilogatîf dal dì dal 16-12-2018 des 00 UTC ae ultime rilevazion
stazionultime
rilevazion
(CET)
covierture dal cîlprecip.
mm
temp. min
°C
temp. med
°C
temp. max
°C
umiditât medie
%
aiar medi
km/h
aiar massim
km/h
radiaz. globâl
KJ/m2
Pontebe03:00n.d.0.0-6.7-6.5-6.31007130
Fusinis03:00n.d.--14.4-14.2-13.97814-
Ariis03:00n.d.0.0-4.1-4.0-3.994---
Barcis03:00n.d.0.0-7.0-6.7-6.390260
Borg Grote Gigant03:00n.d.0.0-5.0-5.0-4.98891482
Bicinins03:00n.d.0.0-3.6-3.4-3.29047-
Boa Paloma03:00n.d.-4.84.84.961--0
Bordan03:00n.d.0.0-2.2-2.0-1.9----
Brugnere03:00n.d.0.0-3.4-3.3-3.2-570
Caprive03:00n.d.0.0-4.7-4.0-3.279380
Rabli03:00n.d.0.0-8.1-7.8-7.6100---
Çarvignan03:00n.d.0.0-4.0-3.9-3.7923100
Chievolis03:00n.d.0.0-3.9-3.9-3.9---0
Cividât03:00n.d.0.0-1.6-1.4-1.26818270
Cjamin di Codroip03:00n.d.0.0-3.6-3.0-2.3100---
Codroip03:00n.d.0.0-5.6-5.6-5.6955100
Denemonç03:00n.d.0.0-6.1-5.9-5.795360
Faedis03:00n.d.0.0-1.4-0.9-0.5745109
Feagne03:00n.d.0.0-2.5-2.5-2.48417200
Fossalon03:00n.d.0.0-3.4-3.1-2.8776110
For disore03:00n.d.0.0-6.4-6.4-6.468380
Glemone del F.03:00n.d.0.0-2.4-1.9-1.471718-
Gardiscje03:00n.d.0.0-3.7-3.7-3.78841213
Grau03:00n.d.0.00.50.60.77911150
il Gorc03:00n.d.0.0-2.8-2.7-2.67947-
Grau mâr03:00n.d.0.00.60.91.37911150
Lauçac03:00n.d.0.0-3.7-3.3-2.990710-
Lignan S.03:00n.d.0.02.02.02.18217212
La Mont Sante di Lussari03:00n.d.0.0-8.6-8.4-8.379470
Mont Mataiûr03:00n.d.--7.9-7.7-7.57515230
Mugle03:00n.d.0.02.22.42.66311210
Monfalcon03:00n.d.0.00.50.60.76911160
Musi03:00n.d.0.0-5.3-5.1-4.9727180
Palaçûl03:00n.d.0.0-4.8-4.5-4.3995120
Pale dal Tei03:00n.d.--6.3-6.2-6.167--0
Plancjaval03:00n.d.0.0-9.9-9.4-8.987180
Pordenon03:00n.d.0.0-3.8-3.6-3.474490
Pradaman03:00n.d.0.0-6.1-6.0-5.910036-
Rivis03:00n.d.0.0-4.3-4.2-4.094---
San Vît dal Tiliment03:00n.d.0.0-4.4-4.3-4.21008120
Sappada (ARPAV)03:00n.d.0.0-11.1-10.9-10.878--0
Sgonico03:00n.d.0.0-5.2-4.6-4.091470
San Pieri dai Sclavons03:00n.d.0.0-4.5-4.5-4.49015210
Talmassons03:00n.d.0.0-3.5-3.4-3.3927120
Tarvis03:00n.d.0.0-9.8-9.8-9.798030
Tumieç03:00n.d.0.0-4.5-4.3-4.1856120
Triest03:00n.d.0.03.23.53.7587130
Udin03:00n.d.0.0-5.4-5.0-4.582470
Vivâr03:00n.d.0.0-5.2-4.6-4.0907110
M. Çoncolan03:00n.d.0.0-7.6-7.5-7.539370
informazions
elaborazion OSMER dai dâts de rêt di stazions meteoclimatichis de Regjon FVJ, ministradis de Protezion civîl regjonâl